Hualapai Flat, Nevada Weather observations

Data are for 10 minute period ending at time listed.
 Day   Time   Solar   Ave.   Ave.  Ave.  Vector  Max.   Baro.   Total    
  of    of     Rad.   Air    Rel.  Wind   Wind   Wind  Press.  Precip.   
Year   Day            Temp.  Hum.  Speed  Dir.   Gust                    
2017   (PST)  Kw/m2    F      %     mph   deg.    mph    mb.     in.     
-------------------------------------------------------------------------
  19    2:30   0.00   39.3    74   10.8   217    15.8   863.5    0.00 
  19    2:40   0.00   39.9    72   13.9   213    24.1   863.4    0.00 
  19    2:50   0.00   39.4    72    7.9   210    18.9   863.4    0.00 
  19    3:00   0.00   39.2    73    9.8   210    21.4   863.4    0.00 
  19    3:10   0.00   39.2    73    9.2   211    15.2   863.6    0.00 
  19    3:20   0.00   39.0    74    6.2   204    10.2   863.9    0.00 
  19    3:30   0.00   39.1    73    9.6   193    14.8   863.9    0.00 
  19    3:40   0.00   38.9    73    9.5   199    17.0   863.7    0.00 
  19    3:50   0.00   39.1    71    7.7   206    14.6   863.7    0.00 
  19    4:00   0.00   39.4    70    8.9   176    14.8   863.5    0.00 
  19    4:10   0.00   39.1    70    3.3   162     8.1   863.7    0.00 
  19    4:20   0.00   38.8    71    5.0     8     9.3   863.7    0.00 
  19    4:30   0.00   37.9    73    5.6   357     8.8   863.8    0.00 
  19    4:40   0.00   36.8    76    3.1    84     5.0   863.9    0.00 
  19    4:50   0.00   36.9    77    4.2    56     7.0   863.9    0.00 
  19    5:00   0.00   36.9    77    4.8    18     8.0   864.1    0.00 
  19    5:10   0.00   37.0    77    4.0    27     6.6   864.2    0.00 
  19    5:20   0.00   36.6    77    4.9   338     8.7   864.3    0.00 
  19    5:30   0.00   37.6    75    4.6   245     9.5   864.5    0.00 
  19    5:40   0.00   37.6    75    3.6   139     8.2   864.4    0.00 
  19    5:50   0.00   36.8    76    6.2   108    12.7   864.6    0.00 
  19    6:00   0.00   36.6    76    6.5   139    10.7   864.8    0.00 
  19    6:10   0.00   37.2    73    6.8    96    11.2   864.8    0.00 
  19    6:20   0.00   38.1    70    5.0    53    10.0   864.8    0.00 
  19    6:30   0.00   38.6    67    4.4   264     9.0   864.9    0.00 
  19    6:40   0.00   37.9    69    4.1   192     7.5   865.0    0.00 
  19    6:50   0.00   37.0    70    0.7   226     3.6   865.1    0.00 
  19    7:00   0.00   37.3    70    1.5   227     4.7   865.1    0.00 
  19    7:10   0.00   37.6    68    9.3   248    14.2   864.9    0.00 
  19    7:20   0.00   36.8    70   14.6   248    19.8   864.6    0.00 
  19    7:30   0.01   37.2    69   17.2   262    27.6   864.5    0.00 
  19    7:40   0.02   37.5    68   20.1   273    28.9   864.3    0.00 
  19    7:50   0.05   37.8    66   17.1   271    22.1   864.4    0.00 
  19    8:00   0.09   38.0    65   16.7   260    22.7   864.4    0.00 
  19    8:10   0.17   38.4    63   16.0   262    27.4   864.5    0.00 
  19    8:20   0.19   39.1    60   16.7   255    21.7   864.6    0.00 
  19    8:30   0.17   38.6    62   15.9   259    22.0   864.8    0.00 
  19    8:40   0.23   38.5    63   13.5   258    22.6   865.1    0.00 
  19    8:50   0.18   38.8    62   12.0   246    18.0   865.2    0.00 
  19    9:00   0.30   39.6    63    7.9   225    12.5   865.4    0.00 
  19    9:10   0.23   40.6    60    6.5   194    11.9   865.5    0.00 
  19    9:20   0.23   39.6    64    6.3   202     9.9   865.6    0.00 
  19    9:30   0.19   39.6    64    6.5   196    10.4   865.7    0.00 
  19    9:40   0.15   39.5    65    6.9   196     9.8   865.9    0.00 
  19    9:50   0.13   38.3    67    4.9   141    10.7   866.2    0.00 
  19   10:00   0.18   37.9    70    3.1   137     4.8   866.3    0.00 
  19   10:10   0.24   38.7    70    0.7   154     2.1   866.3    0.00 
  19   10:20   0.22   39.6    69    0.0     0     0.0   866.3    0.00 
  19   10:30   0.23   39.1    68    2.7   101     4.5   866.3    0.00 
  19   10:40   0.27   38.7    70    3.4    84     5.6   866.2    0.00 
  19   10:50   0.26   39.3    71    1.0   340     2.1   866.3    0.00 
  19   11:00   0.22   39.5    70    1.8   286     3.6   866.3    0.00 
  19   11:10   0.33   39.2    69    2.3   324     3.9   866.2    0.00 
  19   11:20   0.27   39.7    68    1.9   352     4.4   866.0    0.00 
  19   11:30   0.36   40.2    68    0.9    12     3.3   866.0    0.00 
  19   11:40   0.52   41.0    68    3.4   116     6.7   866.0    0.00 
  19   11:50   0.49   41.3    65    3.4   126     5.7   866.0    0.00 
  19   12:00   0.32   40.7    64    3.8    89     6.6   865.9    0.00 
  19   12:10   0.49   40.4    65    3.1    59     5.6   866.0    0.00 
  19   12:20   0.31   41.2    65    1.3    47     3.4   866.0    0.00 
  19   12:30   0.11   40.0    66    3.1    90     7.6   865.9    0.00 
  19   12:40   0.13   39.3    68    2.3   121     3.8   865.8    0.00 
  19   12:50   0.12   39.2    69    2.6    42     6.4   865.6    0.00 
  19   13:00   0.11   39.1    70    2.2    77     4.6   865.5    0.00 
  19   13:10   0.16   39.1    69    0.9    69     2.8   865.4    0.00 
  19   13:20   0.17   39.3    70    4.3    95     5.6   865.2    0.00 
  19   13:30   0.17   39.2    70    4.7   132     6.3   865.2    0.00 
  19   13:40   0.13   39.6    70    3.6   164     5.2   865.1    0.00 
  19   13:50   0.10   39.5    70    6.5   219    10.4   865.2    0.00 
  19   14:00   0.12   38.3    70    4.4   264     6.9   865.0    0.00 
  19   14:10   0.23   38.4    71    3.3   299     5.3   865.0    0.00 
  19   14:20   0.15   38.5    72    3.6   331     5.3   865.0    0.00 
  19   14:30   0.10   37.6    74    6.2   327     9.3   865.0    0.00 
  19   14:40   0.08   37.7    73    2.9   136     6.7   865.0    0.00 
  19   14:50   0.12   38.0    73    4.4   173     6.4   865.0    0.00 
  19   15:00   0.15   38.0    73    4.9   113     7.2   864.8    0.00 
  19   15:10   0.08   37.7    73    2.6    72     6.2   864.7    0.00 
  19   15:20   0.05   37.4    73    2.5   189     5.6   864.8    0.00 
  19   15:30   0.04   36.4    75    4.4   110     6.6   864.8    0.00 
  19   15:40   0.07   35.8    76    1.7    68     4.3   864.9    0.00 
  19   15:50   0.04   36.4    76    2.3    60     4.2   864.8    0.00 
  19   16:00   0.03   35.5    76    4.7   130     6.1   864.8    0.00 
  19   16:10   0.03   35.0    79    5.6   138     7.5   864.8    0.00 
  19   16:20   0.06   35.1    80    4.0   153     5.8   864.8    0.00 
  19   16:30   0.07   35.4    80    1.2   141     3.9   864.6    0.00 
  19   16:40   0.03   35.0    81    3.6   289     6.4   864.6    0.00 
  19   16:50   0.01   34.3    83    4.6   342     6.3   864.6    0.00 
  19   17:00   0.01   33.8    83    3.4    54     7.9   864.8    0.00 
  19   17:10   0.00   33.7    84    5.4   320     8.7   864.9    0.00 
  19   17:20   0.00   33.6    85    4.6   354     5.9   864.8    0.00 
  19   17:30   0.00   33.2    85    6.3   359     7.8   864.7    0.00 
  19   17:40   0.00   32.7    86    4.8   346     6.8   864.7    0.00 
  19   17:50   0.00   32.7    87    5.2     7     8.7   864.8    0.00 
  19   18:00   0.00   32.9    88    4.5   276     6.4   865.1    0.00 
  19   18:10   0.00   33.5    88    3.2   285     5.9   865.2    0.00 
  19   18:20   0.00   33.6    87    2.5   348     5.1   865.1    0.00 
  19   18:30   0.00   33.2    88    4.6   316     5.7   865.0    0.00 
  19   18:40   0.00   32.9    88    2.0   280     4.5   864.9    0.00 
  19   18:50   0.00   32.6    88    4.6   340     9.6   864.8    0.00 
  19   19:00   0.00   32.9    89    2.0     9     4.5   864.6    0.00 
  19   19:10   0.00   32.6    88    5.7    20     7.8   864.3    0.00 
  19   19:20   0.00   32.1    88    4.4   349     6.0   864.2    0.00 
  19   19:30   0.00   31.4    89    5.1   336     6.9   864.1    0.00 
  19   19:40   0.00   31.0    90    5.9   346     7.5   864.1    0.00 
  19   19:50   0.00   31.1    90    3.8   327     7.2   864.0    0.00 
  19   20:00   0.00   31.2    90    4.6   337     9.4   863.9    0.00 
  19   20:10   0.00   31.6    90    4.9   340     9.5   863.9    0.00 
  19   20:20   0.00   31.8    89    3.2   358     4.0   863.8    0.00 
  19   20:30   0.00   31.2    89    4.1   314     7.1   863.8    0.00 
  19   20:40   0.00   31.3    89    4.3   328     5.6   863.7    0.00 
  19   20:50   0.00   31.0    89    4.3   327     5.6   863.6    0.00 
  19   21:00   0.00   30.8    90    4.0   349     5.5   863.5    0.00 
  19   21:10   0.00   30.8    90    6.2   321     9.0   863.4    0.00 
  19   21:20   0.00   31.5    90    4.7   313     6.6   863.3    0.00 
  19   21:30   0.00   32.0    89    3.6   344     4.9   863.3    0.00 
  19   21:40   0.00   31.7    89    3.7   310     4.8   863.3    0.00 
  19   21:50   0.00   32.3    88    3.5   341     4.5   863.2    0.00 
  19   22:00   0.00   32.3    88    2.3     4     5.0   863.1    0.00 
  19   22:10   0.00   32.2    87    2.7   324     5.1   862.9    0.00 
  19   22:20   0.00   31.8    88    5.3   294     6.8   862.8    0.00 
  19   22:30   0.00   31.8    88    3.5    11     5.7   862.6    0.00 
  19   22:40   0.00   31.5    88    4.4    16     6.4   862.3    0.00 
  19   22:50   0.00   32.0    88    4.7   307     8.6   862.3    0.00 
  19   23:00   0.00   32.1    87    1.6   297     2.7   862.4    0.00 
  19   23:10   0.00   32.0    87    0.0   321     0.7   862.4    0.00 
  19   23:20   0.00   31.9    88    2.4     6     4.3   862.1    0.00 
  19   23:30   0.00   31.6    88    3.2    23     4.2   861.9    0.00 
  19   23:40   0.00   31.3    88    1.7   340     4.0   861.8    0.00 
  19   23:50   0.00   31.6    88    2.4   318     4.5   861.6    0.00 
  20    0:00   0.00   31.5    88    3.8   304     5.0   861.3    0.00 
  20    0:10   0.00   31.3    88    4.0   292     5.0   861.2    0.00 
  20    0:20   0.00   31.3    88    2.0   306     3.4   861.0    0.00 
  20    0:30   0.00   31.5    88    1.2    21     4.3   860.8    0.00 
  20    0:40   0.00   31.7    88    1.2    74     2.8   860.6    0.00 
  20    0:50   0.00   31.9    87    2.0   326     5.0   860.3    0.00 
  20    1:00   0.00   31.6    88    3.9   297     5.3   860.2    0.00 
  20    1:10   0.00   31.5    88    3.2   295     5.0   860.1    0.00 
  20    1:20   0.00   31.5    88    2.8   288     4.3   860.0    0.00 
  20    1:30   0.00   31.8    88    3.6   287     5.0   860.0    0.00 
  20    1:40   0.00   31.8    88    2.3   280     3.0   859.8    0.00 
  20    1:50   0.00   31.9    88    3.0   295     4.3   859.7    0.00 
  20    2:00   0.00   31.8    88    3.8   287     5.3   859.6    0.00 
  20    2:10   0.00   31.6    89    4.1   274     6.0   859.5    0.00 
  20    2:20   0.00   31.6    90    3.8   279     5.3   859.4    0.00 

Return to Hualapai Flat graphs page.


Western Regional Climate Center,wrcc@dri.edu